Fayetteville, New York
Current Conditions -  °F | °C
As of 6:54 PM on Friday 19 Dec 2014 (Local Time) from KSYR Reporting Station
Light Snow Light Snow  
Wind Chill: 18°   Ceiling: 2000
Heat Index: 26°   Visibility: 9mi
Dew Point: 21°   Wind: 8mph
Humidity: 81%   Direction: 300°WNW
Pressure: 30.22"   Gusts: NA
Location:  43.03°N, 76°W
Report Text: KSYR 192354Z 30007KT 9SM -SN OVC020 M03/M06 A3022 RMK AO2 SLP237 P0000 60000 T10331061 11028 21033 53017
Loading
Personal Weather Stations






























Interactive Weather Map New forecast layout! Learn more

10-Day Weather Forecast

Advertisements
Track Severe Weather on mobile